Time;durP1;ratioP1;P1;durP2;ratioP2;P2;SDS_P1;SDS_P2;PMS_P1;PMS_P2;Temp;Humidity;BMP_temperature;BMP_pressure;BME280_temperature;BME280_humidity;BME280_pressure;Samples;Min_cycle;Max_cycle;Signal;HPM_P1;HPM_P2
2021/05/15 00:02:06;;;;;;;2.90;2.70;;;;;;;8.97;92.28;99617.81;5050411;28;20189;-76
2021/05/15 00:04:31;;;;;;;3.40;3.10;;;;;;;8.89;92.54;99615.88;5050317;28;20175;-77
2021/05/15 00:06:56;;;;;;;2.30;2.10;;;;;;;8.79;92.80;99614.25;5050324;28;20642;-78
2021/05/15 00:09:22;;;;;;;2.40;2.30;;;;;;;8.74;93.43;99614.41;5050243;28;20223;-78
2021/05/15 00:11:47;;;;;;;3.57;2.17;;;;;;;8.65;93.04;99613.59;5050262;28;20733;-79
2021/05/15 00:14:13;;;;;;;2.50;2.30;;;;;;;8.58;93.76;99605.13;5049728;28;20468;-78
2021/05/15 00:16:39;;;;;;;2.83;2.63;;;;;;;8.61;94.18;99608.00;5050030;28;20186;-78
2021/05/15 00:19:04;;;;;;;2.83;2.63;;;;;;;8.62;94.55;99606.06;5049907;28;20202;-78
2021/05/15 00:21:30;;;;;;;1.60;1.50;;;;;;;8.69;94.44;99608.34;5050096;28;20179;-76
2021/05/15 00:23:55;;;;;;;3.10;2.73;;;;;;;8.70;94.03;99608.03;5050188;28;20340;-78
2021/05/15 00:26:21;;;;;;;2.77;2.57;;;;;;;8.72;93.24;99619.38;5050100;28;20206;-79
2021/05/15 00:28:46;;;;;;;3.80;2.53;;;;;;;8.61;93.66;99612.66;5049883;28;20214;-78
2021/05/15 00:31:11;;;;;;;3.23;2.23;;;;;;;8.65;93.88;99610.88;5049877;28;20206;-78
2021/05/15 00:33:37;;;;;;;3.33;2.50;;;;;;;8.63;94.26;99611.19;5049948;28;20175;-76
2021/05/15 00:36:03;;;;;;;2.33;2.13;;;;;;;8.52;95.16;99615.34;5049905;28;20176;-78
2021/05/15 00:38:29;;;;;;;3.40;3.13;;;;;;;8.46;96.64;99616.63;5049745;28;20171;-78
2021/05/15 00:40:54;;;;;;;4.57;4.27;;;;;;;8.44;98.08;99607.97;5048320;28;20631;-78
2021/05/15 00:43:20;;;;;;;5.00;3.97;;;;;;;8.42;98.07;99604.78;5048674;28;20179;-77
2021/05/15 00:45:45;;;;;;;5.40;5.00;;;;;;;8.49;98.78;99601.56;5049863;28;20210;-76
2021/05/15 00:48:11;;;;;;;4.50;3.67;;;;;;;8.58;99.08;99605.13;5049823;28;20186;-78
2021/05/15 00:50:37;;;;;;;4.70;4.30;;;;;;;8.65;99.20;99594.53;5049806;28;20261;-77
2021/05/15 00:53:03;;;;;;;5.20;4.73;;;;;;;8.74;98.75;99603.53;5050013;28;20176;-77
2021/05/15 00:55:29;;;;;;;4.40;4.00;;;;;;;8.78;98.94;99600.97;5049863;28;20182;-78
2021/05/15 00:57:55;;;;;;;5.03;4.47;;;;;;;8.77;98.09;99599.34;5048263;28;20183;-76
2021/05/15 01:00:21;;;;;;;3.90;3.60;;;;;;;8.72;98.46;99603.06;5049829;28;20216;-78
2021/05/15 01:02:47;;;;;;;6.13;3.77;;;;;;;8.79;97.96;99606.09;5049765;28;20185;-78
2021/05/15 01:05:13;;;;;;;4.40;4.00;;;;;;;8.87;97.69;99605.28;5049681;28;20176;-77
2021/05/15 01:07:38;;;;;;;3.93;3.63;;;;;;;8.93;97.29;99590.38;5049822;28;20163;-73
2021/05/15 01:10:05;;;;;;;4.60;3.97;;;;;;;9.02;97.19;99595.84;5049607;28;20606;-77
2021/05/15 01:12:31;;;;;;;4.63;4.30;;;;;;;9.11;96.13;99588.47;5049794;28;20171;-77
2021/05/15 01:14:58;;;;;;;5.00;4.23;;;;;;;9.21;95.60;99584.59;5049537;28;20539;-77
2021/05/15 01:17:23;;;;;;;4.13;3.73;;;;;;;9.20;95.16;99589.25;5048285;28;20182;-76
2021/05/15 01:19:49;;;;;;;4.17;3.87;;;;;;;9.23;95.40;99590.50;5049409;28;20179;-76
2021/05/15 01:22:15;;;;;;;4.77;4.27;;;;;;;9.25;94.43;99588.25;5049567;28;20345;-77
2021/05/15 01:24:45;;;;;;;5.00;4.60;;;;;;;9.28;94.83;99584.91;5048676;28;20225;-77
2021/05/15 01:27:13;;;;;;;4.30;3.90;;;;;;;9.24;95.29;99586.66;5053147;28;20191;-77
2021/05/15 01:29:40;;;;;;;4.97;4.57;;;;;;;9.23;95.39;99579.59;5051320;28;20604;-77
2021/05/15 01:32:06;;;;;;;7.57;5.63;;;;;;;9.18;95.76;99577.88;5053180;28;20232;-77
2021/05/15 01:34:32;;;;;;;7.50;6.13;;;;;;;9.13;95.63;99580.78;5052865;28;20575;-76
2021/05/15 01:36:57;;;;;;;4.80;4.40;;;;;;;9.07;95.83;99575.78;5052887;28;20175;-78
2021/05/15 01:39:23;;;;;;;4.43;4.03;;;;;;;9.04;96.11;99571.00;5052643;28;20650;-78
2021/05/15 01:41:48;;;;;;;3.43;3.13;;;;;;;9.07;96.45;99573.06;5052792;28;20183;-76
2021/05/15 01:44:16;;;;;;;3.90;3.60;;;;;;;9.03;96.28;99575.63;5052683;28;20171;-79
2021/05/15 01:46:41;;;;;;;4.20;3.90;;;;;;;8.99;95.91;99569.25;5052773;28;20171;-78
2021/05/15 01:49:07;;;;;;;2.93;2.73;;;;;;;9.19;95.91;99568.56;5052338;28;20167;-76
2021/05/15 01:51:33;;;;;;;3.60;2.97;;;;;;;9.30;95.34;99560.84;5052711;28;20175;-78
2021/05/15 01:53:58;;;;;;;5.23;3.67;;;;;;;9.23;93.59;99558.59;5052446;28;20221;-78
2021/05/15 01:56:27;;;;;;;3.70;3.40;;;;;;;9.09;92.95;99559.91;5052726;28;20175;-78
2021/05/15 01:58:53;;;;;;;4.57;4.27;;;;;;;9.06;92.93;99552.41;5052443;28;20639;-77
2021/05/15 02:01:19;;;;;;;2.83;2.50;;;;;;;9.05;93.23;99550.78;5051409;28;20189;-78
2021/05/15 02:03:46;;;;;;;4.07;3.67;;;;;;;8.48;94.99;99550.97;5052276;28;20187;-78
2021/05/15 02:06:12;;;;;;;2.87;2.43;;;;;;;8.52;95.67;99557.38;5052419;28;20635;-78
2021/05/15 02:08:37;;;;;;;3.27;3.07;;;;;;;8.75;95.20;99558.03;5052583;28;20233;-77
2021/05/15 02:11:03;;;;;;;2.97;2.80;;;;;;;8.85;94.31;99558.53;5052269;28;20203;-78
2021/05/15 02:13:31;;;;;;;3.07;2.87;;;;;;;8.88;94.16;99557.06;5052265;28;20179;-78
2021/05/15 02:15:57;;;;;;;2.97;2.77;;;;;;;8.95;94.19;99550.00;5052269;28;20259;-77
2021/05/15 02:18:23;;;;;;;2.57;2.37;;;;;;;8.95;92.77;99541.03;5067143;28;20183;-77
2021/05/15 02:20:49;;;;;;;3.07;2.87;;;;;;;8.66;92.00;99544.41;5069814;28;20182;-77
2021/05/15 02:23:15;;;;;;;3.47;3.13;;;;;;;8.37;93.22;99546.97;5064437;28;20623;-77
2021/05/15 02:25:42;;;;;;;3.47;3.17;;;;;;;8.17;94.26;99538.25;5052094;28;20176;-75
2021/05/15 02:28:07;;;;;;;3.67;3.37;;;;;;;8.00;95.49;99535.50;5050549;28;20183;-77
2021/05/15 02:30:33;;;;;;;3.63;3.33;;;;;;;7.81;96.10;99533.06;5055403;28;20236;-77
2021/05/15 02:32:59;;;;;;;4.03;3.63;;;;;;;7.68;96.37;99545.66;5071629;28;20630;-77
2021/05/15 02:35:24;;;;;;;4.13;3.77;;;;;;;7.56;96.74;99542.72;5070917;28;20167;-78
2021/05/15 02:37:51;;;;;;;4.43;3.73;;;;;;;7.51;97.31;99533.88;5071405;28;20179;-78
2021/05/15 02:40:17;;;;;;;4.00;3.70;;;;;;;7.51;97.58;99531.97;5054484;28;20180;-78
2021/05/15 02:42:43;;;;;;;3.17;2.90;;;;;;;7.52;98.65;99538.19;5051687;28;20214;-78
2021/05/15 02:45:11;;;;;;;4.37;3.97;;;;;;;7.50;98.77;99538.53;5051597;28;20211;-79
2021/05/15 02:47:36;;;;;;;5.77;4.10;;;;;;;7.41;98.71;99537.69;5050205;28;20179;-78
2021/05/15 02:50:04;;;;;;;3.53;3.07;;;;;;;7.34;99.03;99535.41;5051117;28;20203;-76
2021/05/15 02:52:29;;;;;;;4.40;4.10;;;;;;;7.31;98.67;99537.97;5051365;28;20596;-78
2021/05/15 02:54:55;;;;;;;4.07;3.73;;;;;;;7.29;99.39;99530.13;5051671;28;20211;-79
2021/05/15 02:57:20;;;;;;;4.33;3.93;;;;;;;7.29;99.36;99532.03;5051389;28;20191;-79
2021/05/15 02:59:45;;;;;;;3.50;3.20;;;;;;;7.34;99.76;99529.97;5051189;28;20267;-79
2021/05/15 03:02:11;;;;;;;4.47;4.17;;;;;;;7.42;99.88;99528.44;5051273;28;20179;-77
2021/05/15 03:04:36;;;;;;;3.23;2.93;;;;;;;7.39;99.92;99537.22;5051171;28;20179;-79
2021/05/15 03:07:01;;;;;;;4.40;3.87;;;;;;;7.12;100.00;99536.28;5051251;28;20252;-77
2021/05/15 03:09:27;;;;;;;4.37;3.97;;;;;;;6.98;100.00;99535.53;5050859;28;20424;-76
2021/05/15 03:11:52;;;;;;;4.50;4.20;;;;;;;6.96;100.00;99539.69;5051285;28;20182;-78
2021/05/15 03:14:18;;;;;;;3.33;3.03;;;;;;;7.10;100.00;99533.06;5051027;28;20712;-79
2021/05/15 03:16:44;;;;;;;4.10;3.70;;;;;;;7.33;100.00;99536.53;5051012;28;20171;-77
2021/05/15 03:19:09;;;;;;;3.53;3.23;;;;;;;7.43;100.00;99532.75;5049463;28;20197;-79
2021/05/15 03:21:34;;;;;;;2.97;2.73;;;;;;;7.51;99.93;99531.16;5050891;28;20285;-77
2021/05/15 03:24:00;;;;;;;4.53;4.13;;;;;;;7.49;98.80;99528.75;5050869;28;20182;-77
2021/05/15 03:26:25;;;;;;;4.90;4.50;;;;;;;7.43;97.82;99530.84;5050867;28;20175;-78
2021/05/15 03:28:51;;;;;;;4.03;3.70;;;;;;;7.29;97.91;99527.41;5049404;28;20199;-78
2021/05/15 03:31:16;;;;;;;4.47;4.07;;;;;;;7.27;97.22;99524.19;5050713;28;20210;-76
2021/05/15 03:33:42;;;;;;;3.93;3.50;;;;;;;7.29;97.77;99535.56;5050665;28;20179;-78
2021/05/15 03:36:07;;;;;;;3.40;3.10;;;;;;;7.26;96.96;99533.47;5050773;28;20649;-79
2021/05/15 03:38:33;;;;;;;5.13;4.13;;;;;;;7.29;97.37;99530.13;5050487;28;20175;-78
2021/05/15 03:40:58;;;;;;;5.30;4.87;;;;;;;7.33;97.19;99533.81;5050669;28;20175;-79
2021/05/15 03:43:24;;;;;;;3.53;3.33;;;;;;;7.30;97.01;99526.28;5050544;28;20167;-80
2021/05/15 03:45:52;;;;;;;4.63;3.90;;;;;;;7.20;96.81;99523.03;5050539;28;20507;-77
2021/05/15 03:48:21;;;;;;;4.37;3.97;;;;;;;7.04;96.88;99528.84;5049570;28;20179;-77
2021/05/15 03:50:51;;;;;;;11.50;3.60;;;;;;;6.96;97.61;99526.09;5049191;28;20215;-72
2021/05/15 03:53:17;;;;;;;4.30;3.90;;;;;;;6.89;97.85;99520.28;5050855;28;20650;-73
2021/05/15 03:55:42;;;;;;;5.07;4.67;;;;;;;6.96;98.64;99524.19;5054035;28;20270;-72
2021/05/15 03:58:08;;;;;;;5.40;3.83;;;;;;;7.05;99.14;99524.22;5063551;28;20230;-72
2021/05/15 04:00:34;;;;;;;4.73;4.40;;;;;;;6.96;100.00;99520.69;5050571;28;20179;-72
2021/05/15 04:02:59;;;;;;;4.27;3.67;;;;;;;6.88;100.00;99529.56;5050716;28;20638;-73
2021/05/15 04:05:24;;;;;;;5.33;4.90;;;;;;;6.96;100.00;99520.69;5050598;28;20232;-73
2021/05/15 04:07:50;;;;;;;3.77;3.47;;;;;;;7.01;100.00;99521.34;5049468;28;20178;-73
2021/05/15 04:10:15;;;;;;;4.00;3.70;;;;;;;7.08;100.00;99529.03;5050242;28;20206;-73
2021/05/15 04:12:49;;;;;;;4.47;4.07;;;;;;;7.09;100.00;99522.50;5050273;28;20171;-74
2021/05/15 04:15:26;;;;;;;4.77;4.37;;;;;;;7.35;100.00;99526.16;5050171;28;20623;-74
2021/05/15 04:17:51;;;;;;;4.53;3.77;;;;;;;7.38;100.00;99530.19;5050094;28;20163;-73
2021/05/15 04:20:16;;;;;;;5.57;5.07;;;;;;;7.25;100.00;99528.34;5050426;28;20229;-73
2021/05/15 04:22:42;;;;;;;4.53;4.23;;;;;;;7.31;100.00;99527.09;5050146;28;20176;-73
2021/05/15 04:25:07;;;;;;;4.77;4.37;;;;;;;7.39;100.00;99529.88;5050088;28;20179;-73
2021/05/15 04:27:33;;;;;;;6.57;4.93;;;;;;;7.43;100.00;99530.03;5050077;28;20185;-77
2021/05/15 04:29:58;;;;;;;4.80;4.33;;;;;;;7.39;100.00;99519.00;5050346;28;20199;-73
2021/05/15 04:32:24;;;;;;;5.23;4.80;;;;;;;7.42;100.00;99520.28;5049988;28;20225;-74
2021/05/15 04:34:49;;;;;;;5.33;4.80;;;;;;;7.53;100.00;99515.38;5050205;28;20258;-77
2021/05/15 04:37:14;;;;;;;4.77;4.43;;;;;;;7.56;100.00;99520.97;5049977;28;20270;-73
2021/05/15 04:39:40;;;;;;;5.13;4.73;;;;;;;7.70;100.00;99524.38;5049802;28;20307;-73
2021/05/15 04:42:05;;;;;;;4.60;4.30;;;;;;;7.80;100.00;99525.19;5049986;28;20225;-73
2021/05/15 04:44:30;;;;;;;4.37;4.03;;;;;;;7.92;100.00;99519.97;5049920;28;20179;-76
2021/05/15 04:46:56;;;;;;;5.23;4.83;;;;;;;8.12;100.00;99521.31;5049835;28;20190;-73
2021/05/15 04:49:22;;;;;;;5.77;5.27;;;;;;;8.31;100.00;99522.59;5049705;28;20497;-73
2021/05/15 04:51:47;;;;;;;5.47;4.97;;;;;;;8.53;100.00;99518.13;5048671;28;20274;-74
2021/05/15 04:54:13;;;;;;;5.73;5.23;;;;;;;8.63;100.00;99517.81;5048566;28;20179;-73
2021/05/15 04:56:39;;;;;;;5.47;5.07;;;;;;;8.68;100.00;99520.41;5049823;28;20179;-73
2021/05/15 04:59:06;;;;;;;5.67;5.20;;;;;;;8.80;100.00;99528.69;5051148;28;20627;-72
2021/05/15 05:01:31;;;;;;;6.43;5.97;;;;;;;8.96;100.00;99523.56;5053625;28;20187;-74
2021/05/15 05:03:57;;;;;;;5.77;5.33;;;;;;;9.04;100.00;99522.75;5053633;28;20545;-73
2021/05/15 05:06:22;;;;;;;5.60;5.20;;;;;;;9.10;100.00;99518.72;5053674;28;20557;-75
2021/05/15 05:08:48;;;;;;;5.53;5.13;;;;;;;9.14;100.00;99516.97;5053476;28;20190;-75
2021/05/15 05:11:13;;;;;;;5.40;5.00;;;;;;;9.28;100.00;99518.69;5053368;28;20253;-75
2021/05/15 05:13:39;;;;;;;5.90;5.47;;;;;;;9.48;100.00;99517.97;5053348;28;20207;-73
2021/05/15 05:16:04;;;;;;;5.80;5.30;;;;;;;9.67;99.57;99523.03;5053546;28;20183;-74
2021/05/15 05:18:30;;;;;;;5.73;5.23;;;;;;;9.77;98.54;99511.75;5055110;28;20232;-73
2021/05/15 05:20:56;;;;;;;4.73;4.33;;;;;;;9.83;97.51;99515.88;5054143;28;20452;-72
2021/05/15 05:23:23;;;;;;;5.10;4.70;;;;;;;9.92;96.82;99513.91;5053219;28;20187;-72
2021/05/15 05:25:48;;;;;;;5.13;4.77;;;;;;;10.07;95.90;99509.81;5053320;28;20172;-77
2021/05/15 05:28:16;;;;;;;4.60;4.23;;;;;;;10.13;94.92;99514.75;5052898;28;20305;-77
2021/05/15 05:30:42;;;;;;;4.67;4.30;;;;;;;10.20;93.58;99513.44;5052959;28;20199;-73
2021/05/15 05:33:08;;;;;;;4.17;3.87;;;;;;;10.31;94.13;99509.22;5072495;28;20186;-72
2021/05/15 05:35:35;;;;;;;4.63;4.33;;;;;;;10.41;93.78;99504.16;5073187;28;20174;-76
2021/05/15 05:38:01;;;;;;;5.77;5.37;;;;;;;10.50;92.88;99495.09;5072718;28;20174;-73
2021/05/15 05:40:27;;;;;;;5.10;4.70;;;;;;;10.56;92.43;99504.66;5073284;28;20265;-73
2021/05/15 05:42:52;;;;;;;4.20;3.87;;;;;;;10.60;92.39;99503.69;5073175;28;20250;-72
2021/05/15 05:45:17;;;;;;;5.17;4.77;;;;;;;10.65;91.44;99503.47;5072757;28;20198;-75
2021/05/15 05:47:43;;;;;;;4.47;4.10;;;;;;;10.74;90.66;99500.66;5072820;28;20213;-74
2021/05/15 05:50:10;;;;;;;4.40;4.00;;;;;;;10.84;90.77;99507.63;5072605;28;20210;-73
2021/05/15 05:52:36;;;;;;;3.87;3.57;;;;;;;10.93;90.45;99513.81;5072598;28;20182;-74
2021/05/15 05:55:04;;;;;;;4.53;4.17;;;;;;;11.05;90.71;99524.78;5072572;28;20515;-74
2021/05/15 05:57:29;;;;;;;4.57;4.20;;;;;;;11.11;89.78;99517.97;5072227;28;20190;-72
2021/05/15 05:59:55;;;;;;;6.80;3.90;;;;;;;11.22;89.24;99527.34;5072311;28;20175;-73
2021/05/15 06:02:20;;;;;;;4.10;3.80;;;;;;;11.32;90.01;99513.25;5072559;28;20182;-73
2021/05/15 06:04:45;;;;;;;4.20;3.90;;;;;;;11.40;89.47;99516.22;5072288;28;20587;-73
2021/05/15 06:07:12;;;;;;;3.70;3.40;;;;;;;11.38;87.95;99513.81;5072521;28;20175;-74
2021/05/15 06:09:38;;;;;;;3.50;3.30;;;;;;;11.41;85.72;99504.94;5071986;28;20198;-73
2021/05/15 06:12:03;;;;;;;3.03;2.83;;;;;;;11.31;84.90;99517.13;5071339;28;20224;-75
2021/05/15 06:14:29;;;;;;;3.47;3.20;;;;;;;11.32;85.76;99510.50;5072289;28;20175;-74
2021/05/15 06:16:54;;;;;;;2.70;2.50;;;;;;;11.35;85.54;99516.44;5072268;28;20598;-73
2021/05/15 06:19:20;;;;;;;3.07;2.37;;;;;;;11.37;84.90;99517.69;5067661;28;20682;-73
2021/05/15 06:21:45;;;;;;;3.20;3.00;;;;;;;11.40;85.76;99513.47;5072334;28;20178;-72
2021/05/15 06:24:11;;;;;;;2.97;2.60;;;;;;;11.44;84.81;99517.16;5072361;28;20261;-73
2021/05/15 06:26:37;;;;;;;1.90;1.80;;;;;;;11.44;84.24;99507.00;5052498;28;20167;-72
2021/05/15 06:29:03;;;;;;;3.53;3.33;;;;;;;11.51;85.41;99520.09;5050938;28;20648;-75
2021/05/15 06:31:29;;;;;;;3.00;2.70;;;;;;;11.60;84.93;99515.34;5052262;28;20202;-75
2021/05/15 06:33:54;;;;;;;4.13;3.83;;;;;;;11.63;86.08;99517.38;5052329;28;20178;-74
2021/05/15 06:36:19;;;;;;;4.43;4.13;;;;;;;11.69;87.32;99512.47;5052313;28;20252;-73
2021/05/15 06:38:45;;;;;;;3.17;2.97;;;;;;;11.78;86.59;99510.44;5071835;28;20178;-72
2021/05/15 06:41:10;;;;;;;2.23;2.10;;;;;;;11.93;85.98;99515.25;5072350;28;20213;-78
2021/05/15 06:43:36;;;;;;;1.10;1.10;;;;;;;12.11;82.79;99502.13;5072220;28;20756;-73
2021/05/15 06:46:01;;;;;;;1.23;1.13;;;;;;;12.29;80.66;99500.69;5071676;28;20680;-75
2021/05/15 06:48:27;;;;;;;1.00;1.00;;;;;;;12.39;78.79;99504.91;5070908;28;20178;-75
2021/05/15 06:50:52;;;;;;;1.30;1.20;;;;;;;12.46;80.20;99505.94;5070550;28;20297;-76
2021/05/15 06:53:18;;;;;;;0.30;0.30;;;;;;;12.40;77.70;99506.50;5072039;28;20166;-76
2021/05/15 06:55:43;;;;;;;0.20;0.20;;;;;;;12.34;78.17;99500.47;5071939;28;20596;-78
2021/05/15 06:58:08;;;;;;;1.27;1.17;;;;;;;12.29;78.86;99495.22;5071629;28;20204;-77
2021/05/15 07:00:34;;;;;;;1.00;1.00;;;;;;;12.36;76.61;99492.72;5071824;28;20182;-77
2021/05/15 07:03:00;;;;;;;0.10;0.10;;;;;;;12.25;75.80;99507.22;5071788;28;20678;-75
2021/05/15 07:05:25;;;;;;;0.47;0.40;;;;;;;12.24;76.58;99500.94;5071672;28;20166;-75
2021/05/15 07:07:51;;;;;;;0.17;0.17;;;;;;;12.31;76.84;99500.38;5071597;28;20226;-76
2021/05/15 07:10:16;;;;;;;0.40;0.40;;;;;;;12.33;76.38;99498.09;5071588;28;20389;-76
2021/05/15 07:12:42;;;;;;;0.40;0.40;;;;;;;12.31;77.31;99494.91;5071462;28;20202;-74
2021/05/15 07:15:09;;;;;;;0.40;0.40;;;;;;;12.29;75.80;99491.69;5071548;28;20622;-76
2021/05/15 07:17:35;;;;;;;0.53;0.53;;;;;;;12.32;75.38;99491.03;5071428;28;20257;-72
2021/05/15 07:20:00;;;;;;;0.30;0.30;;;;;;;12.44;75.72;99486.31;5071177;28;20862;-75
2021/05/15 07:22:27;;;;;;;0.60;0.60;;;;;;;12.58;75.98;99482.34;5071276;28;20171;-76
2021/05/15 07:24:53;;;;;;;0.03;0.00;;;;;;;12.75;73.60;99484.81;5071222;28;20225;-76
2021/05/15 07:27:19;;;;;;;0.40;0.40;;;;;;;12.78;73.39;99484.13;5071257;28;20216;-75
2021/05/15 07:29:44;;;;;;;0.40;0.40;;;;;;;12.83;73.00;99483.84;5070890;28;20193;-75
2021/05/15 07:32:09;;;;;;;0.57;0.57;;;;;;;12.88;73.20;99475.41;5070991;28;20243;-74
2021/05/15 07:34:35;;;;;;;0.30;0.30;;;;;;;12.95;74.44;99475.56;5071082;28;20174;-76
2021/05/15 07:37:00;;;;;;;0.20;0.20;;;;;;;12.79;71.39;99472.00;5071008;28;20178;-75
2021/05/15 07:39:26;;;;;;;0.60;0.60;;;;;;;12.81;72.75;99470.50;5070946;28;20170;-75
2021/05/15 07:41:51;;;;;;;0.37;0.37;;;;;;;12.81;73.49;99470.50;5070997;28;20206;-77
2021/05/15 07:44:18;;;;;;;0.33;0.33;;;;;;;12.88;73.81;99472.66;5069562;28;20201;-76
2021/05/15 07:46:43;;;;;;;0.70;0.57;;;;;;;12.79;73.16;99475.53;5070895;28;20171;-77
2021/05/15 07:49:09;;;;;;;0.50;0.43;;;;;;;12.71;73.38;99472.94;5070736;28;20673;-77
2021/05/15 07:51:34;;;;;;;0.40;0.23;;;;;;;12.77;73.68;99466.09;5070846;28;20289;-77
2021/05/15 07:54:01;;;;;;;0.30;0.30;;;;;;;12.78;73.69;99473.16;5070896;28;20755;-76
2021/05/15 07:56:27;;;;;;;0.13;0.13;;;;;;;12.77;72.01;99474.31;5070852;28;20630;-77
2021/05/15 07:58:52;;;;;;;0.80;0.80;;;;;;;12.74;74.03;99472.28;5069430;28;20193;-81
2021/05/15 08:01:18;;;;;;;0.30;0.30;;;;;;;12.70;73.38;99476.84;5069557;28;20198;-80
2021/05/15 08:03:43;;;;;;;0.33;0.33;;;;;;;12.64;74.04;99470.03;5070813;28;20233;-76
2021/05/15 08:06:09;;;;;;;0.40;0.40;;;;;;;12.73;73.83;99476.97;5069783;28;20184;-73
2021/05/15 08:08:36;;;;;;;0.40;0.40;;;;;;;12.91;74.20;99473.91;5069729;28;20175;-79
2021/05/15 08:11:01;;;;;;;0.30;0.30;;;;;;;12.88;73.32;99478.13;5070522;28;20202;-77
2021/05/15 08:13:26;;;;;;;0.30;0.30;;;;;;;12.90;74.30;99475.03;5070677;28;20166;-77
2021/05/15 08:15:52;;;;;;;2.73;0.70;;;;;;;12.90;72.03;99473.09;5070511;28;20539;-78
2021/05/15 08:18:18;;;;;;;1.23;0.10;;;;;;;12.96;71.92;99471.69;5070556;28;20174;-77
2021/05/15 08:20:44;;;;;;;0.43;0.43;;;;;;;13.07;73.44;99472.78;5069313;28;20683;-77
2021/05/15 08:23:10;;;;;;;0.30;0.30;;;;;;;13.09;72.62;99473.22;5070029;28;20170;-79
2021/05/15 08:25:35;;;;;;;0.63;0.40;;;;;;;13.16;71.80;99474.53;5070252;28;20175;-78
2021/05/15 08:28:05;;;;;;;0.40;0.40;;;;;;;13.11;71.56;99473.66;5069849;28;20276;-78
2021/05/15 08:30:32;;;;;;;0.10;0.10;;;;;;;13.01;71.36;99467.88;5070122;28;20267;-76
2021/05/15 08:32:58;;;;;;;0.30;0.30;;;;;;;12.96;71.46;99465.41;5070291;28;20199;-78
2021/05/15 08:35:24;;;;;;;0.30;0.30;;;;;;;12.99;72.29;99465.50;5073612;28;20222;-77
2021/05/15 08:37:50;;;;;;;0.30;0.30;;;;;;;13.05;72.48;99447.66;5073938;28;20257;-77
2021/05/15 08:40:16;;;;;;;0.40;0.40;;;;;;;13.14;72.54;99452.16;5074125;28;20221;-76
2021/05/15 08:42:42;;;;;;;0.30;0.20;;;;;;;13.16;72.64;99452.59;5073883;28;20642;-76
2021/05/15 08:45:11;;;;;;;0.30;0.30;;;;;;;13.05;71.64;99444.91;5074004;28;20261;-75
2021/05/15 08:47:38;;;;;;;0.50;0.50;;;;;;;13.06;71.91;99441.03;5073906;28;20343;-77
2021/05/15 08:50:07;;;;;;;0.40;0.40;;;;;;;13.10;72.93;99439.16;5073665;28;20297;-75
2021/05/15 08:52:36;;;;;;;0.30;0.30;;;;;;;13.08;72.33;99438.72;5073869;28;20574;-76
2021/05/15 08:55:03;;;;;;;0.37;0.30;;;;;;;13.14;70.97;99441.19;5073572;28;20185;-76
2021/05/15 08:57:30;;;;;;;0.43;0.43;;;;;;;13.28;71.70;99439.63;5073555;28;20191;-77
2021/05/15 08:59:55;;;;;;;0.33;0.27;;;;;;;13.47;71.47;99438.13;5073548;28;20182;-76
2021/05/15 09:02:21;;;;;;;0.37;0.37;;;;;;;13.63;70.41;99436.97;5073596;28;20178;-76
2021/05/15 09:04:46;;;;;;;0.30;0.30;;;;;;;13.82;69.80;99432.69;5073642;28;20225;-76
2021/05/15 09:07:11;;;;;;;1.70;0.60;;;;;;;13.94;67.76;99432.56;5073589;28;20179;-76
2021/05/15 09:09:37;;;;;;;0.17;0.17;;;;;;;14.08;67.93;99426.59;5073538;28;20616;-74
2021/05/15 09:12:03;;;;;;;0.10;0.10;;;;;;;14.18;67.13;99429.56;5073218;28;20197;-79
2021/05/15 09:14:29;;;;;;;0.50;0.37;;;;;;;14.25;67.26;99426.16;5061627;28;20269;-76
2021/05/15 09:16:56;;;;;;;0.47;0.37;;;;;;;14.23;67.13;99412.00;5070526;28;20274;-76
2021/05/15 09:19:27;;;;;;;0.30;0.30;;;;;;;14.22;67.45;99411.19;5071691;28;20182;-75
2021/05/15 09:22:04;;;;;;;0.23;0.23;;;;;;;14.18;64.02;99415.03;5072920;28;20347;-83
2021/05/15 09:24:31;;;;;;;0.20;0.20;;;;;;;14.23;64.18;99414.75;5054406;28;20214;-78
2021/05/15 09:26:57;;;;;;;0.30;0.30;;;;;;;14.26;64.40;99414.00;5051873;28;20201;-72
2021/05/15 09:29:22;;;;;;;0.20;0.20;;;;;;;14.33;67.26;99410.63;5052889;28;20168;-76
2021/05/15 09:31:48;;;;;;;0.30;0.30;;;;;;;14.24;68.51;99410.84;5053071;28;20175;-73
2021/05/15 09:34:15;;;;;;;0.33;0.33;;;;;;;14.10;68.73;99413.28;5052923;28;20184;-78
2021/05/15 09:36:43;;;;;;;0.23;0.23;;;;;;;14.08;68.23;99407.34;5053059;28;20262;-81
2021/05/15 09:39:17;;;;;;;0.23;0.23;;;;;;;13.84;67.10;99406.44;5052719;28;20229;-78
2021/05/15 09:41:51;;;;;;;0.20;0.20;;;;;;;13.76;67.63;99404.72;5052945;28;20179;-79
2021/05/15 09:44:19;;;;;;;0.20;0.20;;;;;;;13.78;67.25;99399.66;5052803;28;20561;-77
2021/05/15 09:46:47;;;;;;;0.30;0.30;;;;;;;13.82;67.60;99399.72;5051501;28;20183;-79
2021/05/15 09:49:14;;;;;;;0.47;0.47;;;;;;;13.83;66.82;99393.09;5052674;28;20654;-79
2021/05/15 09:51:49;;;;;;;0.20;0.20;;;;;;;13.77;66.53;99397.28;5052959;28;20211;-78
2021/05/15 09:54:18;;;;;;;0.50;0.50;;;;;;;13.90;67.18;99390.50;5052779;28;20179;-81
2021/05/15 09:56:58;;;;;;;0.13;0.13;;;;;;;13.92;66.20;99393.69;5052665;28;20175;-82
2021/05/15 09:59:34;;;;;;;0.20;0.20;;;;;;;13.74;67.82;99381.50;5052806;28;20182;-79
2021/05/15 10:02:07;;;;;;;0.63;0.63;;;;;;;13.78;69.65;99383.19;5052727;28;20182;-79
2021/05/15 10:04:33;;;;;;;0.20;0.20;;;;;;;13.65;69.61;99374.28;5053024;28;20179;-79
2021/05/15 10:07:00;;;;;;;0.23;0.23;;;;;;;13.57;71.22;99382.69;5052770;28;20262;-80
2021/05/15 10:09:29;;;;;;;0.47;0.40;;;;;;;13.60;71.16;99382.78;5052127;28;20167;-76
2021/05/15 10:11:55;;;;;;;0.20;0.20;;;;;;;13.69;71.86;99377.88;5052240;28;20176;-80
2021/05/15 10:14:21;;;;;;;0.30;0.30;;;;;;;13.84;70.63;99375.44;5052245;28;20183;-77
2021/05/15 10:16:47;;;;;;;3.20;0.40;;;;;;;14.05;70.85;99377.88;5052381;28;20183;-81
2021/05/15 10:19:14;;;;;;;0.20;0.20;;;;;;;14.40;66.83;99378.56;5052186;28;20179;-74
2021/05/15 10:21:40;;;;;;;0.20;0.20;;;;;;;14.54;60.72;99365.13;5052053;28;20175;-72
2021/05/15 10:24:06;;;;;;;0.10;0.10;;;;;;;14.52;60.43;99369.41;5051974;28;20187;-73
2021/05/15 10:26:32;;;;;;;0.00;0.00;;;;;;;14.49;60.61;99362.69;5052600;28;20182;-73
2021/05/15 10:29:04;;;;;;;0.20;0.20;;;;;;;14.46;60.63;99374.41;5052294;28;20521;-75
2021/05/15 10:31:44;;;;;;;0.13;0.13;;;;;;;14.29;61.01;99366.56;5052000;28;20696;-74
2021/05/15 10:34:11;;;;;;;0.20;0.20;;;;;;;14.13;61.19;99360.38;5050584;28;20265;-73
2021/05/15 10:36:47;;;;;;;0.27;0.27;;;;;;;14.15;62.92;99349.81;5051797;28;20167;-72
2021/05/15 10:39:33;;;;;;;0.20;0.20;;;;;;;14.35;62.73;99345.91;5051744;28;20537;-72
2021/05/15 10:42:02;;;;;;;0.20;0.20;;;;;;;14.47;63.03;99348.53;5050521;28;20177;-72
2021/05/15 10:44:45;;;;;;;0.00;0.00;;;;;;;14.26;63.34;99357.13;5051682;28;20179;-72
2021/05/15 10:47:11;;;;;;;0.00;0.00;;;;;;;14.04;64.57;99349.63;5052001;28;20530;-72
2021/05/15 10:49:36;;;;;;;0.10;0.10;;;;;;;13.77;65.50;99364.34;5051652;28;20266;-72
2021/05/15 10:52:10;;;;;;;0.20;0.20;;;;;;;13.64;65.41;99364.44;5054854;28;20258;-72
2021/05/15 10:54:42;;;;;;;0.20;0.20;;;;;;;13.46;64.94;99370.69;5070233;28;20256;-72
2021/05/15 10:57:10;;;;;;;0.10;0.10;;;;;;;13.24;63.00;99375.66;5071319;28;20182;-72
2021/05/15 10:59:37;;;;;;;0.00;0.00;;;;;;;13.02;65.06;99376.28;5058701;28;20261;-72
2021/05/15 11:02:08;;;;;;;0.23;0.23;;;;;;;12.91;65.97;99380.69;5071864;28;20166;-72
2021/05/15 11:04:46;;;;;;;0.20;0.20;;;;;;;12.61;68.06;99372.88;5071746;28;20228;-73
2021/05/15 11:07:12;;;;;;;0.20;0.20;;;;;;;12.40;70.32;99367.59;5071758;28;20212;-73
2021/05/15 11:09:49;;;;;;;0.20;0.20;;;;;;;12.32;72.06;99363.09;5071499;28;20204;-72
2021/05/15 11:12:16;;;;;;;0.30;0.30;;;;;;;12.42;72.53;99359.81;5071624;28;20163;-72
2021/05/15 11:14:49;;;;;;;0.20;0.20;;;;;;;12.62;72.73;99344.31;5071535;28;20177;-72
2021/05/15 11:17:21;;;;;;;0.10;0.10;;;;;;;12.91;73.98;99345.03;5071462;28;20170;-73
2021/05/15 11:19:51;;;;;;;1.33;0.27;;;;;;;13.58;73.91;99343.91;5070627;28;20528;-73
2021/05/15 11:22:17;;;;;;;0.20;0.20;;;;;;;14.19;70.27;99329.50;5051104;28;20186;-73
2021/05/15 11:25:15;;;;;;;0.10;0.10;;;;;;;14.79;67.59;99327.09;5051664;28;20538;-73
2021/05/15 11:27:51;;;;;;;0.10;0.10;;;;;;;14.61;65.85;99315.00;5058324;28;20256;-74
2021/05/15 11:30:41;;;;;;;0.10;0.10;;;;;;;14.96;65.08;99311.25;5070947;28;20202;-73
2021/05/15 11:33:07;;;;;;;0.20;0.20;;;;;;;15.29;61.01;99311.38;5065612;28;20175;-73
2021/05/15 11:35:38;;;;;;;0.10;0.10;;;;;;;15.69;60.34;99301.75;5071116;28;20178;-77